createdAt,value
2019-02-08T00:00:44.094Z,30.83
2019-02-08T00:03:47.980Z,31.00
2019-02-08T00:06:52.039Z,28.93
2019-02-08T00:09:55.718Z,30.70
2019-02-08T00:12:59.606Z,28.13
2019-02-08T00:16:03.180Z,27.03
2019-02-08T00:19:06.880Z,31.07
2019-02-08T00:22:10.457Z,27.60
2019-02-08T00:25:15.547Z,28.30
2019-02-08T00:28:19.190Z,30.90
2019-02-08T00:31:23.024Z,28.47
2019-02-08T00:34:26.734Z,25.17
2019-02-08T00:37:30.371Z,27.53
2019-02-08T00:40:33.924Z,25.50
2019-02-08T00:43:37.488Z,26.83
2019-02-08T00:46:41.046Z,22.97
2019-02-08T00:49:44.616Z,28.43
2019-02-08T00:52:48.656Z,24.90
2019-02-08T00:55:52.302Z,24.37
2019-02-08T00:58:55.862Z,24.50
2019-02-08T01:02:00.070Z,25.27
2019-02-08T01:05:04.199Z,22.47
2019-02-08T01:08:07.761Z,25.67
2019-02-08T01:11:11.567Z,23.10
2019-02-08T01:14:15.229Z,24.17
2019-02-08T01:17:18.798Z,23.03
2019-02-08T01:20:22.546Z,23.13
2019-02-08T01:23:26.421Z,22.33
2019-02-08T01:26:30.298Z,19.83
2019-02-08T01:29:33.866Z,20.37
2019-02-08T01:32:37.424Z,22.20
2019-02-08T01:35:41.455Z,19.90
2019-02-08T01:38:45.026Z,18.40
2019-02-08T01:41:48.865Z,21.63
2019-02-08T01:44:52.777Z,18.80
2019-02-08T01:47:56.641Z,20.33
2019-02-08T01:51:00.472Z,18.50
2019-02-08T01:54:04.131Z,19.07
2019-02-08T01:57:07.693Z,18.03
2019-02-08T02:00:16.026Z,19.93
2019-02-08T02:03:19.663Z,17.77
2019-02-08T02:06:23.210Z,19.23
2019-02-08T02:09:27.118Z,17.60
2019-02-08T02:12:30.682Z,18.77
2019-02-08T02:15:34.416Z,16.80
2019-02-08T02:18:38.264Z,18.07
2019-02-08T02:21:41.837Z,15.93
2019-02-08T02:24:45.644Z,17.57
2019-02-08T02:27:49.379Z,17.53
2019-02-08T02:30:53.198Z,17.10
2019-02-08T02:33:56.848Z,16.10
2019-02-08T02:37:00.404Z,16.73
2019-02-08T02:40:05.609Z,19.27
2019-02-08T02:43:09.459Z,17.37
2019-02-08T02:46:13.420Z,17.07
2019-02-08T02:49:16.958Z,14.63
2019-02-08T02:52:20.519Z,15.57
2019-02-08T02:55:25.955Z,15.63
2019-02-08T02:58:31.850Z,15.63
2019-02-08T03:01:35.587Z,15.27
2019-02-08T03:04:39.229Z,15.07
2019-02-08T03:07:43.405Z,14.73
2019-02-08T03:10:47.339Z,14.20
2019-02-08T03:13:50.910Z,13.93
2019-02-08T03:16:54.531Z,13.77
2019-02-08T03:19:58.848Z,14.73
2019-02-08T03:23:02.407Z,15.17
2019-02-08T03:26:06.042Z,15.47
2019-02-08T03:29:09.675Z,13.63
2019-02-08T03:32:13.561Z,14.47
2019-02-08T03:35:19.848Z,13.60
2019-02-08T03:38:23.412Z,14.37
2019-02-08T03:41:26.974Z,14.17
2019-02-08T03:44:30.605Z,14.00
2019-02-08T03:47:34.496Z,13.07
2019-02-08T03:50:38.338Z,14.30
2019-02-08T03:53:41.889Z,12.40
2019-02-08T03:56:45.451Z,13.77
2019-02-08T03:59:49.021Z,14.07
2019-02-08T04:02:52.645Z,13.47
2019-02-08T04:05:56.261Z,13.80
2019-02-08T04:08:59.819Z,13.53
2019-02-08T04:12:03.423Z,11.50
2019-02-08T04:15:09.192Z,11.60
2019-02-08T04:18:12.953Z,11.20
2019-02-08T04:21:17.078Z,12.67
2019-02-08T04:24:20.712Z,13.37
2019-02-08T04:27:24.266Z,10.87
2019-02-08T04:30:28.714Z,10.87
2019-02-08T04:33:32.290Z,11.30
2019-02-08T04:36:35.847Z,12.93
2019-02-08T04:39:39.830Z,11.63
2019-02-08T04:42:43.570Z,12.47
2019-02-08T04:45:47.752Z,12.17
2019-02-08T04:48:51.319Z,12.33
2019-02-08T04:51:55.171Z,12.20
2019-02-08T04:54:58.734Z,11.17
2019-02-08T04:58:02.359Z,11.70
2019-02-08T05:01:06.104Z,10.80
2019-02-08T05:04:09.998Z,12.43
2019-02-08T05:07:13.743Z,11.03
2019-02-08T05:10:19.592Z,12.77
2019-02-08T05:13:23.473Z,11.10
2019-02-08T05:16:27.024Z,9.77
2019-02-08T05:19:30.683Z,10.17
2019-02-08T05:22:34.307Z,10.60
2019-02-08T05:25:38.194Z,8.87
2019-02-08T05:28:42.068Z,8.97
2019-02-08T05:31:46.224Z,19.90
2019-02-08T05:34:49.795Z,24.83
2019-02-08T05:37:53.607Z,14.90
2019-02-08T05:40:57.412Z,13.33
2019-02-08T05:44:01.523Z,16.43
2019-02-08T05:47:05.561Z,12.80
2019-02-08T05:50:12.148Z,15.73
2019-02-08T05:53:15.703Z,45.40
2019-02-08T05:56:19.267Z,70.40
2019-02-08T05:59:23.127Z,66.20
2019-02-08T06:02:26.986Z,61.00
2019-02-08T06:05:30.808Z,52.47
2019-02-08T06:08:34.364Z,43.53
2019-02-08T06:11:37.936Z,39.30
2019-02-08T06:14:41.546Z,36.20
2019-02-08T06:17:45.286Z,36.67
2019-02-08T06:20:48.921Z,32.43
2019-02-08T06:23:52.815Z,30.57
2019-02-08T06:26:56.743Z,30.10
2019-02-08T06:30:00.383Z,30.13
2019-02-08T06:33:04.962Z,29.60
2019-02-08T06:36:09.179Z,31.07
2019-02-08T06:39:13.062Z,26.10
2019-02-08T06:42:16.913Z,26.27
2019-02-08T06:45:22.383Z,25.90
2019-02-08T06:48:26.011Z,25.70
2019-02-08T06:51:29.559Z,23.87
2019-02-08T06:54:33.400Z,23.83
2019-02-08T06:57:44.668Z,23.20
2019-02-08T07:01:11.726Z,22.23
2019-02-08T07:04:33.205Z,23.03
2019-02-08T07:07:58.633Z,23.77
2019-02-08T07:11:17.969Z,21.07
2019-02-08T07:14:45.527Z,22.43
2019-02-08T07:18:17.748Z,20.73
2019-02-08T07:21:34.919Z,22.00
2019-02-08T07:24:47.017Z,19.83
2019-02-08T07:28:21.962Z,18.70
2019-02-08T07:31:43.428Z,17.60
2019-02-08T07:34:55.797Z,19.57
2019-02-08T07:38:28.528Z,16.10
2019-02-08T07:41:50.219Z,18.07
2019-02-08T07:45:08.213Z,17.97
2019-02-08T07:48:19.322Z,18.20
2019-02-08T07:51:57.134Z,14.77
2019-02-08T07:55:07.185Z,17.07
2019-02-08T07:58:26.659Z,17.67
2019-02-08T08:01:52.631Z,16.20
2019-02-08T08:05:09.004Z,14.17
2019-02-08T08:08:22.427Z,16.70
2019-02-08T08:11:35.150Z,15.17
2019-02-08T08:14:47.486Z,13.93
2019-02-08T08:17:58.436Z,14.77
2019-02-08T08:21:30.663Z,14.13
2019-02-08T08:24:52.917Z,12.87
2019-02-08T08:28:23.488Z,13.47
2019-02-08T08:31:53.992Z,12.73
2019-02-08T08:35:22.844Z,11.53
2019-02-08T08:39:07.462Z,13.53
2019-02-08T08:42:52.702Z,11.10
2019-02-08T08:46:36.552Z,11.60
2019-02-08T08:50:04.352Z,12.70
2019-02-08T08:53:26.475Z,12.80
2019-02-08T08:57:08.591Z,11.30
2019-02-08T09:00:50.736Z,11.30
2019-02-08T09:04:43.887Z,12.50
2019-02-08T09:08:23.663Z,12.17
2019-02-08T09:11:40.099Z,10.20
2019-02-08T09:15:42.496Z,10.53
2019-02-08T09:19:20.151Z,11.27
2019-02-08T09:23:17.322Z,9.63
2019-02-08T09:26:53.786Z,9.80
2019-02-08T09:30:27.590Z,8.47
2019-02-08T09:34:01.305Z,9.30
2019-02-08T09:37:57.371Z,9.03
2019-02-08T09:41:44.731Z,10.03
2019-02-08T09:45:05.244Z,9.33
2019-02-08T09:48:56.367Z,8.67
2019-02-08T09:52:36.424Z,9.23
2019-02-08T09:56:33.667Z,9.53
2019-02-08T10:00:15.103Z,8.37
2019-02-08T10:03:34.392Z,6.90
2019-02-08T10:07:27.441Z,9.00
2019-02-08T10:11:10.878Z,8.13
2019-02-08T10:14:54.906Z,7.33
2019-02-08T10:18:32.690Z,8.33
2019-02-08T10:22:41.644Z,6.90
2019-02-08T10:26:15.884Z,7.90
2019-02-08T10:29:35.480Z,7.47
2019-02-08T10:32:58.020Z,7.93
2019-02-08T10:36:28.263Z,8.37
2019-02-08T10:40:10.657Z,7.10
2019-02-08T10:43:56.136Z,6.43
2019-02-08T10:47:36.999Z,7.07
2019-02-08T10:51:16.863Z,5.77
2019-02-08T10:55:10.455Z,6.60
2019-02-08T10:58:48.561Z,7.00
2019-02-08T11:02:44.726Z,8.30
2019-02-08T11:06:14.625Z,6.43
2019-02-08T11:09:49.277Z,8.23
2019-02-08T11:13:22.981Z,6.70
2019-02-08T11:17:20.146Z,5.10
2019-02-08T11:20:23.783Z,6.00
2019-02-08T11:23:27.386Z,6.93
2019-02-08T11:26:31.410Z,6.10
2019-02-08T11:29:34.958Z,5.10
2019-02-08T11:32:43.257Z,5.40
2019-02-08T11:35:44.516Z,8.30
2019-02-08T11:38:48.060Z,5.57
2019-02-08T11:41:51.789Z,5.47
2019-02-08T11:44:55.342Z,5.10
2019-02-08T11:47:58.894Z,4.30
2019-02-08T11:51:02.459Z,4.90
2019-02-08T11:54:06.748Z,5.03
2019-02-08T11:57:10.796Z,4.80
2019-02-08T12:00:18.506Z,4.80
2019-02-08T12:03:22.056Z,4.73
2019-02-08T12:06:25.615Z,5.90
2019-02-08T12:09:29.164Z,4.33
2019-02-08T12:12:33.020Z,5.90
2019-02-08T12:15:36.780Z,4.77
2019-02-08T12:18:40.343Z,5.13
2019-02-08T12:21:43.979Z,4.40
2019-02-08T12:24:47.549Z,3.90
2019-02-08T12:27:51.685Z,4.33
2019-02-08T12:30:55.228Z,4.33
2019-02-08T12:33:58.780Z,4.63
2019-02-08T12:37:02.330Z,3.53
2019-02-08T12:40:07.529Z,4.47
2019-02-08T12:43:11.530Z,4.57
2019-02-08T12:46:15.669Z,4.03
2019-02-08T12:49:19.224Z,4.27
2019-02-08T12:52:22.814Z,4.13
2019-02-08T12:55:26.442Z,4.63
2019-02-08T12:58:30.322Z,4.70
2019-02-08T13:01:37.682Z,4.07
2019-02-08T13:04:39.400Z,4.07
2019-02-08T13:07:42.946Z,3.70
2019-02-08T13:10:46.499Z,3.30
2019-02-08T13:13:50.079Z,4.63
2019-02-08T13:16:53.589Z,4.90
2019-02-08T13:19:57.145Z,3.77
2019-02-08T13:23:00.755Z,4.20
2019-02-08T13:26:04.571Z,4.60
2019-02-08T13:29:08.119Z,3.40
2019-02-08T13:32:11.670Z,3.53
2019-02-08T13:35:15.384Z,4.10
2019-02-08T13:38:19.002Z,3.27
2019-02-08T13:41:22.868Z,3.00
2019-02-08T13:44:26.423Z,4.03
2019-02-08T13:47:29.994Z,2.60
2019-02-08T13:50:33.991Z,3.63
2019-02-08T13:53:37.533Z,4.00
2019-02-08T13:56:41.408Z,4.03
2019-02-08T13:59:44.959Z,4.93
2019-02-08T14:02:48.506Z,3.60
2019-02-08T14:05:52.161Z,2.83
2019-02-08T14:08:55.682Z,3.60
2019-02-08T14:11:59.367Z,5.87
2019-02-08T14:15:02.926Z,4.33
2019-02-08T14:18:06.648Z,3.63
2019-02-08T14:21:10.213Z,3.03
2019-02-08T14:24:13.886Z,4.20
2019-02-08T14:27:17.780Z,2.90
2019-02-08T14:30:30.021Z,3.20
2019-02-08T14:33:33.798Z,2.60
2019-02-08T14:36:37.710Z,3.57
2019-02-08T14:39:41.257Z,2.97
2019-02-08T14:42:44.816Z,4.10
2019-02-08T14:45:48.368Z,3.00
2019-02-08T14:48:51.909Z,3.23
2019-02-08T14:51:55.470Z,4.50
2019-02-08T14:54:59.013Z,3.40
2019-02-08T14:58:02.755Z,3.37
2019-02-08T15:01:07.056Z,3.17
2019-02-08T15:04:10.626Z,45.77
2019-02-08T15:07:14.212Z,14.33
2019-02-08T15:10:23.438Z,16.33
2019-02-08T15:13:26.995Z,30.30
2019-02-08T15:16:30.618Z,28.73
2019-02-08T15:19:34.500Z,29.93
2019-02-08T15:22:38.083Z,23.70
2019-02-08T15:25:42.204Z,21.20
2019-02-08T15:28:46.053Z,20.07
2019-02-08T15:31:49.620Z,23.53
2019-02-08T15:34:53.562Z,20.53
2019-02-08T15:37:57.266Z,18.83
2019-02-08T15:41:00.807Z,17.93
2019-02-08T15:44:04.687Z,17.43
2019-02-08T15:47:08.261Z,14.83
2019-02-08T15:50:12.006Z,14.57
2019-02-08T15:53:15.630Z,11.27
2019-02-08T15:56:19.178Z,12.70
2019-02-08T15:59:22.806Z,13.20
2019-02-08T16:02:26.363Z,11.33
2019-02-08T16:05:31.078Z,13.70
2019-02-08T16:08:34.917Z,13.10
2019-02-08T16:11:38.467Z,11.33
2019-02-08T16:14:42.038Z,14.20
2019-02-08T16:17:45.664Z,12.53
2019-02-08T16:20:49.289Z,9.77
2019-02-08T16:23:52.922Z,10.33
2019-02-08T16:26:56.460Z,8.83
2019-02-08T16:30:00.023Z,10.43
2019-02-08T16:33:03.660Z,12.97
2019-02-08T16:36:07.864Z,9.50
2019-02-08T16:39:11.491Z,9.67
2019-02-08T16:42:15.036Z,12.20
2019-02-08T16:45:21.684Z,8.20
2019-02-08T16:48:25.235Z,10.20
2019-02-08T16:51:28.881Z,8.57
2019-02-08T16:54:32.436Z,9.10
2019-02-08T16:57:36.304Z,9.53
2019-02-08T17:00:40.319Z,10.67
2019-02-08T17:03:43.866Z,7.90
2019-02-08T17:06:47.427Z,10.60
2019-02-08T17:09:50.986Z,7.07
2019-02-08T17:12:54.537Z,8.43
2019-02-08T17:15:58.111Z,6.83
2019-02-08T17:19:01.746Z,7.53
2019-02-08T17:22:05.302Z,6.70
2019-02-08T17:25:09.038Z,6.20
2019-02-08T17:28:12.666Z,7.50
2019-02-08T17:31:16.217Z,5.87
2019-02-08T17:34:20.949Z,6.63
2019-02-08T17:37:24.514Z,8.00
2019-02-08T17:40:30.181Z,7.57
2019-02-08T17:43:33.735Z,5.13
2019-02-08T17:46:37.291Z,6.23
2019-02-08T17:49:40.836Z,4.73
2019-02-08T17:52:44.394Z,5.27
2019-02-08T17:55:48.441Z,5.20
2019-02-08T17:58:51.988Z,4.87
2019-02-08T18:01:55.543Z,5.90
2019-02-08T18:04:59.162Z,5.30
2019-02-08T18:08:02.718Z,5.23
2019-02-08T18:11:06.588Z,4.83
2019-02-08T18:14:10.364Z,5.20
2019-02-08T18:17:14.415Z,6.60
2019-02-08T18:20:23.695Z,20.90
2019-02-08T18:23:27.296Z,12.40
2019-02-08T18:26:31.147Z,5.07
2019-02-08T18:29:34.696Z,9.93
2019-02-08T18:32:38.618Z,9.10
2019-02-08T18:35:42.237Z,6.27
2019-02-08T18:38:45.799Z,11.10
2019-02-08T18:41:50.011Z,11.87
2019-02-08T18:44:53.558Z,6.13
2019-02-08T18:47:57.179Z,5.60
2019-02-08T18:51:00.726Z,4.53
2019-02-08T18:54:04.627Z,9.13
2019-02-08T18:57:08.478Z,6.30
2019-02-08T19:00:15.346Z,4.57
2019-02-08T19:03:19.415Z,5.97
2019-02-08T19:06:23.263Z,5.70
2019-02-08T19:09:26.812Z,3.97
2019-02-08T19:12:30.365Z,6.10
2019-02-08T19:15:34.573Z,7.27
2019-02-08T19:18:38.482Z,8.87
2019-02-08T19:21:42.031Z,9.00
2019-02-08T19:24:45.583Z,4.43
2019-02-08T19:27:49.138Z,7.73
2019-02-08T19:30:53.004Z,11.70
2019-02-08T19:33:56.561Z,20.50
2019-02-08T19:37:00.488Z,12.33
2019-02-08T19:40:05.774Z,33.47
2019-02-08T19:43:09.483Z,6.73
2019-02-08T19:46:13.198Z,6.80
2019-02-08T19:49:17.064Z,6.23
2019-02-08T19:52:20.614Z,12.20
2019-02-08T19:55:24.345Z,6.10
2019-02-08T19:58:34.298Z,17.30
2019-02-08T20:01:33.247Z,10.27
2019-02-08T20:04:37.071Z,10.83
2019-02-08T20:07:41.066Z,7.73
2019-02-08T20:10:46.526Z,6.70
2019-02-08T20:13:50.162Z,8.00
2019-02-08T20:16:53.768Z,8.13
2019-02-08T20:19:57.378Z,9.70
2019-02-08T20:23:01.609Z,11.03
2019-02-08T20:26:05.706Z,6.47
2019-02-08T20:29:09.331Z,10.93
2019-02-08T20:32:12.964Z,11.90
2019-02-08T20:35:18.250Z,10.67
2019-02-08T20:38:21.799Z,16.50
2019-02-08T20:41:25.448Z,15.37
2019-02-08T20:44:29.642Z,12.70
2019-02-08T20:47:33.347Z,6.57
2019-02-08T20:50:37.239Z,9.07
2019-02-08T20:53:40.805Z,9.63
2019-02-08T20:56:44.743Z,14.13
2019-02-08T20:59:48.310Z,12.10
2019-02-08T21:02:51.941Z,8.27
2019-02-08T21:05:55.490Z,6.87
2019-02-08T21:08:59.014Z,9.23
2019-02-08T21:12:02.570Z,11.27
2019-02-08T21:15:07.018Z,8.17
2019-02-08T21:18:11.702Z,5.73
2019-02-08T21:21:15.658Z,10.53
2019-02-08T21:24:19.279Z,7.77
2019-02-08T21:27:22.846Z,8.73
2019-02-08T21:30:26.878Z,6.43
2019-02-08T21:33:30.433Z,9.43
2019-02-08T21:36:38.782Z,17.47
2019-02-08T21:39:39.533Z,11.03
2019-02-08T21:42:43.097Z,7.37
2019-02-08T21:45:46.733Z,9.90
2019-02-08T21:48:50.272Z,14.60
2019-02-08T21:51:54.238Z,5.83
2019-02-08T21:54:57.866Z,12.60
2019-02-08T21:58:01.424Z,10.37
2019-02-08T22:01:05.763Z,21.57
2019-02-08T22:04:09.319Z,6.93
2019-02-08T22:07:12.962Z,10.33
2019-02-08T22:10:17.185Z,8.23
2019-02-08T22:13:20.749Z,12.80
2019-02-08T22:16:26.243Z,8.37
2019-02-08T22:19:29.802Z,8.83
2019-02-08T22:22:33.682Z,10.30
2019-02-08T22:25:37.594Z,6.70
2019-02-08T22:28:41.495Z,21.83
2019-02-08T22:31:45.393Z,14.47
2019-02-08T22:34:49.288Z,19.80
2019-02-08T22:37:53.263Z,20.93
2019-02-08T22:40:57.128Z,20.93
2019-02-08T22:44:00.955Z,12.70
2019-02-08T22:47:04.603Z,12.77
2019-02-08T22:50:09.435Z,10.83
2019-02-08T22:53:13.072Z,10.73
2019-02-08T22:56:16.631Z,17.77
2019-02-08T22:59:21.974Z,8.87
2019-02-08T23:02:25.811Z,12.77
2019-02-08T23:05:29.641Z,13.77
2019-02-08T23:08:33.216Z,15.17
2019-02-08T23:11:36.768Z,12.33
2019-02-08T23:14:40.333Z,11.40
2019-02-08T23:17:43.966Z,7.13
2019-02-08T23:20:47.792Z,7.17
2019-02-08T23:23:51.366Z,12.20
2019-02-08T23:26:54.926Z,11.17
2019-02-08T23:29:58.478Z,8.07
2019-02-08T23:33:02.416Z,7.83
2019-02-08T23:36:06.249Z,7.80
2019-02-08T23:39:13.384Z,8.70
2019-02-08T23:42:16.926Z,5.83
2019-02-08T23:45:20.606Z,8.43
2019-02-08T23:48:24.491Z,7.57
2019-02-08T23:51:28.034Z,5.87
2019-02-08T23:54:31.953Z,9.00
2019-02-08T23:57:35.516Z,13.00
